sensor_id;sensor_type;location;lat;lon;timestamp;temperature;humidity
12470;DHT22;36499;46.484;13.832;2023-02-28T00:01:53;-2.20;99.90
12470;DHT22;36499;46.484;13.832;2023-02-28T00:04:20;-2.20;99.90
12470;DHT22;36499;46.484;13.832;2023-02-28T00:06:47;-2.20;99.90
12470;DHT22;36499;46.484;13.832;2023-02-28T00:09:14;-2.20;99.90
12470;DHT22;36499;46.484;13.832;2023-02-28T00:11:43;-2.20;99.90
12470;DHT22;36499;46.484;13.832;2023-02-28T00:14:10;-2.20;99.90
12470;DHT22;36499;46.484;13.832;2023-02-28T00:16:37;-2.20;99.90
12470;DHT22;36499;46.484;13.832;2023-02-28T00:19:04;-2.10;99.90
12470;DHT22;36499;46.484;13.832;2023-02-28T00:21:31;-2.10;99.90
12470;DHT22;36499;46.484;13.832;2023-02-28T00:23:58;-2.10;99.90
12470;DHT22;36499;46.484;13.832;2023-02-28T00:26:25;-2.10;99.90
12470;DHT22;36499;46.484;13.832;2023-02-28T00:28:53;-2.10;99.90
12470;DHT22;36499;46.484;13.832;2023-02-28T00:31:20;-2.10;99.90
12470;DHT22;36499;46.484;13.832;2023-02-28T00:33:47;-2.10;99.90
12470;DHT22;36499;46.484;13.832;2023-02-28T00:36:16;-2.00;99.90
12470;DHT22;36499;46.484;13.832;2023-02-28T00:38:43;-2.00;99.90
12470;DHT22;36499;46.484;13.832;2023-02-28T00:41:10;-2.00;99.90
12470;DHT22;36499;46.484;13.832;2023-02-28T00:43:38;-2.00;99.90
12470;DHT22;36499;46.484;13.832;2023-02-28T00:46:07;-2.00;99.90
12470;DHT22;36499;46.484;13.832;2023-02-28T00:48:35;-2.00;99.90
12470;DHT22;36499;46.484;13.832;2023-02-28T00:51:02;-2.00;99.90
12470;DHT22;36499;46.484;13.832;2023-02-28T00:53:30;-2.00;99.90
12470;DHT22;36499;46.484;13.832;2023-02-28T00:55:58;-2.00;99.90
12470;DHT22;36499;46.484;13.832;2023-02-28T00:58:25;-2.00;99.90
12470;DHT22;36499;46.484;13.832;2023-02-28T01:00:52;-2.10;99.90
12470;DHT22;36499;46.484;13.832;2023-02-28T01:03:22;-2.10;99.90
12470;DHT22;36499;46.484;13.832;2023-02-28T01:05:49;-2.10;99.90
12470;DHT22;36499;46.484;13.832;2023-02-28T01:08:18;-2.10;99.90
12470;DHT22;36499;46.484;13.832;2023-02-28T01:10:46;-2.20;99.90
12470;DHT22;36499;46.484;13.832;2023-02-28T01:13:13;-2.20;99.90
12470;DHT22;36499;46.484;13.832;2023-02-28T01:15:43;-2.20;99.90
12470;DHT22;36499;46.484;13.832;2023-02-28T01:18:15;-2.20;99.90
12470;DHT22;36499;46.484;13.832;2023-02-28T01:20:43;-2.20;99.90
12470;DHT22;36499;46.484;13.832;2023-02-28T01:23:11;-2.20;99.90
12470;DHT22;36499;46.484;13.832;2023-02-28T01:25:38;-2.20;99.90
12470;DHT22;36499;46.484;13.832;2023-02-28T01:28:06;-2.20;99.90
12470;DHT22;36499;46.484;13.832;2023-02-28T01:30:33;-2.30;99.90
12470;DHT22;36499;46.484;13.832;2023-02-28T01:33:01;-2.30;99.90
12470;DHT22;36499;46.484;13.832;2023-02-28T01:35:28;-2.30;99.90
12470;DHT22;36499;46.484;13.832;2023-02-28T01:37:56;-2.30;99.90
12470;DHT22;36499;46.484;13.832;2023-02-28T01:40:23;-2.40;99.90
12470;DHT22;36499;46.484;13.832;2023-02-28T01:42:50;-2.40;99.90
12470;DHT22;36499;46.484;13.832;2023-02-28T01:45:22;-2.40;99.90
12470;DHT22;36499;46.484;13.832;2023-02-28T01:47:54;-2.50;99.90
12470;DHT22;36499;46.484;13.832;2023-02-28T01:50:26;-2.50;99.90
12470;DHT22;36499;46.484;13.832;2023-02-28T01:53:01;-2.50;99.90
12470;DHT22;36499;46.484;13.832;2023-02-28T01:55:31;-2.40;99.90
12470;DHT22;36499;46.484;13.832;2023-02-28T01:58:02;-2.50;99.90
12470;DHT22;36499;46.484;13.832;2023-02-28T02:00:34;-2.50;99.90
12470;DHT22;36499;46.484;13.832;2023-02-28T02:03:07;-2.50;99.90
12470;DHT22;36499;46.484;13.832;2023-02-28T02:05:38;-2.50;99.90
12470;DHT22;36499;46.484;13.832;2023-02-28T02:08:10;-2.50;99.90
12470;DHT22;36499;46.484;13.832;2023-02-28T02:10:41;-2.50;99.90
12470;DHT22;36499;46.484;13.832;2023-02-28T02:13:33;-2.50;99.90
12470;DHT22;36499;46.484;13.832;2023-02-28T02:16:24;-2.60;99.90
12470;DHT22;36499;46.484;13.832;2023-02-28T02:19:08;-2.60;99.90
12470;DHT22;36499;46.484;13.832;2023-02-28T02:22:20;-2.60;99.90
12470;DHT22;36499;46.484;13.832;2023-02-28T02:25:19;-2.60;99.90
12470;DHT22;36499;46.484;13.832;2023-02-28T02:28:19;-2.60;99.90
12470;DHT22;36499;46.484;13.832;2023-02-28T02:34:41;-2.60;99.90
12470;DHT22;36499;46.484;13.832;2023-02-28T02:37:24;-2.60;99.90
12470;DHT22;36499;46.484;13.832;2023-02-28T02:40:02;-2.60;99.90
12470;DHT22;36499;46.484;13.832;2023-02-28T02:42:41;-2.60;99.90
12470;DHT22;36499;46.484;13.832;2023-02-28T02:45:19;-2.60;99.90
12470;DHT22;36499;46.484;13.832;2023-02-28T02:47:51;-2.60;99.90
12470;DHT22;36499;46.484;13.832;2023-02-28T02:50:24;-2.70;99.90
12470;DHT22;36499;46.484;13.832;2023-02-28T02:52:58;-2.70;99.90
12470;DHT22;36499;46.484;13.832;2023-02-28T02:55:31;-2.70;99.90
12470;DHT22;36499;46.484;13.832;2023-02-28T02:58:06;-2.70;99.90
12470;DHT22;36499;46.484;13.832;2023-02-28T03:00:39;-2.80;99.90
12470;DHT22;36499;46.484;13.832;2023-02-28T03:03:11;-2.80;99.90
12470;DHT22;36499;46.484;13.832;2023-02-28T03:05:46;-2.80;99.90
12470;DHT22;36499;46.484;13.832;2023-02-28T03:08:15;-2.80;99.90
12470;DHT22;36499;46.484;13.832;2023-02-28T03:10:44;-2.80;99.90
12470;DHT22;36499;46.484;13.832;2023-02-28T03:13:34;-2.80;99.90
12470;DHT22;36499;46.484;13.832;2023-02-28T03:16:29;-2.80;99.90
12470;DHT22;36499;46.484;13.832;2023-02-28T03:19:30;-2.80;99.90
12470;DHT22;36499;46.484;13.832;2023-02-28T03:22:20;-2.80;99.90
12470;DHT22;36499;46.484;13.832;2023-02-28T03:25:03;-2.80;99.90
12470;DHT22;36499;46.484;13.832;2023-02-28T03:27:39;-2.80;99.90
12470;DHT22;36499;46.484;13.832;2023-02-28T03:30:12;-2.80;99.90
12470;DHT22;36499;46.484;13.832;2023-02-28T03:32:52;-2.70;99.90
12470;DHT22;36499;46.484;13.832;2023-02-28T03:35:26;-2.70;99.90
12470;DHT22;36499;46.484;13.832;2023-02-28T03:38:05;-2.70;99.90
12470;DHT22;36499;46.484;13.832;2023-02-28T03:40:43;-2.70;99.90
12470;DHT22;36499;46.484;13.832;2023-02-28T03:43:18;-2.80;99.90
12470;DHT22;36499;46.484;13.832;2023-02-28T03:45:50;-2.80;99.90
12470;DHT22;36499;46.484;13.832;2023-02-28T03:48:22;-2.80;99.90
12470;DHT22;36499;46.484;13.832;2023-02-28T03:50:53;-2.80;99.90
12470;DHT22;36499;46.484;13.832;2023-02-28T03:53:29;-2.90;99.90
12470;DHT22;36499;46.484;13.832;2023-02-28T03:56:05;-2.90;99.90
12470;DHT22;36499;46.484;13.832;2023-02-28T03:58:39;-2.90;99.90
12470;DHT22;36499;46.484;13.832;2023-02-28T04:01:16;-2.90;99.90
12470;DHT22;36499;46.484;13.832;2023-02-28T04:03:49;-2.90;99.90
12470;DHT22;36499;46.484;13.832;2023-02-28T04:06:18;-2.90;99.90
12470;DHT22;36499;46.484;13.832;2023-02-28T04:08:49;-2.90;99.90
12470;DHT22;36499;46.484;13.832;2023-02-28T04:11:21;-2.90;99.90
12470;DHT22;36499;46.484;13.832;2023-02-28T04:13:50;-2.90;99.90
12470;DHT22;36499;46.484;13.832;2023-02-28T04:16:18;-2.90;99.90
12470;DHT22;36499;46.484;13.832;2023-02-28T04:18:45;-2.90;99.90
12470;DHT22;36499;46.484;13.832;2023-02-28T04:21:12;-2.90;99.90
12470;DHT22;36499;46.484;13.832;2023-02-28T04:23:40;-2.90;99.90
12470;DHT22;36499;46.484;13.832;2023-02-28T04:26:08;-2.90;99.90
12470;DHT22;36499;46.484;13.832;2023-02-28T04:28:37;-2.90;99.90
12470;DHT22;36499;46.484;13.832;2023-02-28T04:31:05;-2.90;99.90
12470;DHT22;36499;46.484;13.832;2023-02-28T04:33:32;-2.90;99.90
12470;DHT22;36499;46.484;13.832;2023-02-28T04:36:01;-3.00;99.90
12470;DHT22;36499;46.484;13.832;2023-02-28T04:38:29;-3.10;99.90
12470;DHT22;36499;46.484;13.832;2023-02-28T04:40:57;-3.00;99.90
12470;DHT22;36499;46.484;13.832;2023-02-28T04:43:27;-3.00;99.90
12470;DHT22;36499;46.484;13.832;2023-02-28T04:45:55;-3.00;99.90
12470;DHT22;36499;46.484;13.832;2023-02-28T04:48:23;-3.00;99.90
12470;DHT22;36499;46.484;13.832;2023-02-28T04:50:51;-2.90;99.90
12470;DHT22;36499;46.484;13.832;2023-02-28T04:53:19;-2.90;99.90
12470;DHT22;36499;46.484;13.832;2023-02-28T04:55:46;-3.00;99.90
12470;DHT22;36499;46.484;13.832;2023-02-28T04:58:13;-3.00;99.90
12470;DHT22;36499;46.484;13.832;2023-02-28T05:00:42;-3.10;99.90
12470;DHT22;36499;46.484;13.832;2023-02-28T05:03:10;-3.00;99.90
12470;DHT22;36499;46.484;13.832;2023-02-28T05:05:37;-3.00;99.90
12470;DHT22;36499;46.484;13.832;2023-02-28T05:08:04;-3.00;99.90
12470;DHT22;36499;46.484;13.832;2023-02-28T05:10:31;-3.00;99.90
12470;DHT22;36499;46.484;13.832;2023-02-28T05:12:58;-3.00;99.90
12470;DHT22;36499;46.484;13.832;2023-02-28T05:15:25;-3.00;99.90
12470;DHT22;36499;46.484;13.832;2023-02-28T05:17:54;-3.00;99.90
12470;DHT22;36499;46.484;13.832;2023-02-28T05:20:21;-3.00;99.90
12470;DHT22;36499;46.484;13.832;2023-02-28T05:22:49;-3.00;99.90
12470;DHT22;36499;46.484;13.832;2023-02-28T05:25:18;-3.00;99.90
12470;DHT22;36499;46.484;13.832;2023-02-28T05:27:48;-2.90;99.90
12470;DHT22;36499;46.484;13.832;2023-02-28T05:30:15;-2.90;99.90
12470;DHT22;36499;46.484;13.832;2023-02-28T05:32:43;-2.90;99.90
12470;DHT22;36499;46.484;13.832;2023-02-28T05:35:11;-2.90;99.90
12470;DHT22;36499;46.484;13.832;2023-02-28T05:37:39;-2.80;99.90
12470;DHT22;36499;46.484;13.832;2023-02-28T05:40:07;-2.80;99.90
12470;DHT22;36499;46.484;13.832;2023-02-28T05:42:37;-2.80;99.90
12470;DHT22;36499;46.484;13.832;2023-02-28T05:45:05;-2.70;99.90
12470;DHT22;36499;46.484;13.832;2023-02-28T05:47:33;-2.70;99.90
12470;DHT22;36499;46.484;13.832;2023-02-28T05:50:01;-2.80;99.90
12470;DHT22;36499;46.484;13.832;2023-02-28T05:52:30;-2.70;99.90
12470;DHT22;36499;46.484;13.832;2023-02-28T05:54:58;-2.70;99.90
12470;DHT22;36499;46.484;13.832;2023-02-28T05:57:25;-2.70;99.90
12470;DHT22;36499;46.484;13.832;2023-02-28T05:59:52;-2.70;99.90
12470;DHT22;36499;46.484;13.832;2023-02-28T06:02:19;-2.70;99.90
12470;DHT22;36499;46.484;13.832;2023-02-28T06:04:46;-2.70;99.90
12470;DHT22;36499;46.484;13.832;2023-02-28T06:07:13;-2.70;99.90
12470;DHT22;36499;46.484;13.832;2023-02-28T06:09:41;-2.70;99.90
12470;DHT22;36499;46.484;13.832;2023-02-28T06:12:10;-2.70;99.90
12470;DHT22;36499;46.484;13.832;2023-02-28T06:14:37;-2.70;99.90
12470;DHT22;36499;46.484;13.832;2023-02-28T06:17:04;-2.70;99.90
12470;DHT22;36499;46.484;13.832;2023-02-28T06:19:31;-2.60;99.90
12470;DHT22;36499;46.484;13.832;2023-02-28T06:21:59;-2.60;99.90
12470;DHT22;36499;46.484;13.832;2023-02-28T06:24:26;-2.60;99.90
12470;DHT22;36499;46.484;13.832;2023-02-28T06:26:55;-2.70;99.90
12470;DHT22;36499;46.484;13.832;2023-02-28T06:29:24;-2.60;99.90
12470;DHT22;36499;46.484;13.832;2023-02-28T06:31:52;-2.60;99.90
12470;DHT22;36499;46.484;13.832;2023-02-28T06:34:19;-2.60;99.90
12470;DHT22;36499;46.484;13.832;2023-02-28T06:36:46;-2.60;99.90
12470;DHT22;36499;46.484;13.832;2023-02-28T06:39:13;-2.60;99.90
12470;DHT22;36499;46.484;13.832;2023-02-28T06:41:40;-2.60;99.90
12470;DHT22;36499;46.484;13.832;2023-02-28T06:44:13;-2.50;99.90
12470;DHT22;36499;46.484;13.832;2023-02-28T06:46:41;-2.50;99.90
12470;DHT22;36499;46.484;13.832;2023-02-28T06:49:08;-2.50;99.90
12470;DHT22;36499;46.484;13.832;2023-02-28T06:51:36;-2.50;99.90
12470;DHT22;36499;46.484;13.832;2023-02-28T06:54:05;-2.40;99.90
12470;DHT22;36499;46.484;13.832;2023-02-28T06:56:34;-2.40;99.90
12470;DHT22;36499;46.484;13.832;2023-02-28T06:59:02;-2.50;99.90
12470;DHT22;36499;46.484;13.832;2023-02-28T07:01:31;-2.40;99.90
12470;DHT22;36499;46.484;13.832;2023-02-28T07:03:58;-2.40;99.90
12470;DHT22;36499;46.484;13.832;2023-02-28T07:06:26;-2.40;99.90
12470;DHT22;36499;46.484;13.832;2023-02-28T07:08:54;-2.40;99.90
12470;DHT22;36499;46.484;13.832;2023-02-28T07:11:22;-2.40;99.90
12470;DHT22;36499;46.484;13.832;2023-02-28T07:13:51;-2.40;99.90
12470;DHT22;36499;46.484;13.832;2023-02-28T07:16:18;-2.40;99.90
12470;DHT22;36499;46.484;13.832;2023-02-28T07:18:47;-2.40;99.90
12470;DHT22;36499;46.484;13.832;2023-02-28T07:21:15;-2.40;99.90
12470;DHT22;36499;46.484;13.832;2023-02-28T07:23:42;-2.30;99.90
12470;DHT22;36499;46.484;13.832;2023-02-28T07:26:12;-2.30;99.90
12470;DHT22;36499;46.484;13.832;2023-02-28T07:28:41;-2.30;99.90
12470;DHT22;36499;46.484;13.832;2023-02-28T07:31:09;-2.30;99.90
12470;DHT22;36499;46.484;13.832;2023-02-28T07:33:37;-2.30;99.90
12470;DHT22;36499;46.484;13.832;2023-02-28T07:36:08;-2.30;99.90
12470;DHT22;36499;46.484;13.832;2023-02-28T07:38:39;-2.20;99.90
12470;DHT22;36499;46.484;13.832;2023-02-28T07:41:06;-2.20;99.90
12470;DHT22;36499;46.484;13.832;2023-02-28T07:43:34;-2.20;99.90
12470;DHT22;36499;46.484;13.832;2023-02-28T07:46:03;-2.10;99.90
12470;DHT22;36499;46.484;13.832;2023-02-28T07:48:31;-2.10;99.90
12470;DHT22;36499;46.484;13.832;2023-02-28T07:50:59;-2.00;99.90
12470;DHT22;36499;46.484;13.832;2023-02-28T07:53:28;-2.00;99.90
12470;DHT22;36499;46.484;13.832;2023-02-28T07:55:56;-2.00;99.90
12470;DHT22;36499;46.484;13.832;2023-02-28T07:58:25;-1.90;99.90
12470;DHT22;36499;46.484;13.832;2023-02-28T08:00:53;-1.80;99.90
12470;DHT22;36499;46.484;13.832;2023-02-28T08:03:22;-1.80;99.90
12470;DHT22;36499;46.484;13.832;2023-02-28T08:05:50;-1.70;99.90
12470;DHT22;36499;46.484;13.832;2023-02-28T08:08:18;-1.60;99.90
12470;DHT22;36499;46.484;13.832;2023-02-28T08:10:46;-1.60;99.90
12470;DHT22;36499;46.484;13.832;2023-02-28T08:13:13;-1.50;99.90
12470;DHT22;36499;46.484;13.832;2023-02-28T08:15:41;-1.50;99.90
12470;DHT22;36499;46.484;13.832;2023-02-28T08:18:08;-1.50;99.90
12470;DHT22;36499;46.484;13.832;2023-02-28T08:20:36;-1.50;99.90
12470;DHT22;36499;46.484;13.832;2023-02-28T08:23:03;-1.40;99.90
12470;DHT22;36499;46.484;13.832;2023-02-28T08:25:30;-1.40;99.90
12470;DHT22;36499;46.484;13.832;2023-02-28T08:27:58;-1.40;99.90
12470;DHT22;36499;46.484;13.832;2023-02-28T08:30:25;-1.40;99.90
12470;DHT22;36499;46.484;13.832;2023-02-28T08:32:52;-1.30;99.90
12470;DHT22;36499;46.484;13.832;2023-02-28T08:35:19;-1.40;99.90
12470;DHT22;36499;46.484;13.832;2023-02-28T08:37:47;-1.40;99.90
12470;DHT22;36499;46.484;13.832;2023-02-28T08:40:15;-1.40;99.90
12470;DHT22;36499;46.484;13.832;2023-02-28T08:42:43;-1.40;99.90
12470;DHT22;36499;46.484;13.832;2023-02-28T08:45:13;-1.30;99.90
12470;DHT22;36499;46.484;13.832;2023-02-28T08:47:41;-1.30;99.90
12470;DHT22;36499;46.484;13.832;2023-02-28T08:50:09;-1.30;99.90
12470;DHT22;36499;46.484;13.832;2023-02-28T08:52:36;-1.30;99.90
12470;DHT22;36499;46.484;13.832;2023-02-28T08:55:04;-1.30;99.90
12470;DHT22;36499;46.484;13.832;2023-02-28T08:57:32;-1.30;99.90
12470;DHT22;36499;46.484;13.832;2023-02-28T08:59:59;-1.30;99.90
12470;DHT22;36499;46.484;13.832;2023-02-28T09:02:31;-1.30;99.90
12470;DHT22;36499;46.484;13.832;2023-02-28T09:04:58;-1.30;99.90
12470;DHT22;36499;46.484;13.832;2023-02-28T09:07:25;-1.20;99.90
12470;DHT22;36499;46.484;13.832;2023-02-28T09:09:52;-1.20;99.90
12470;DHT22;36499;46.484;13.832;2023-02-28T09:12:24;-1.30;99.90
12470;DHT22;36499;46.484;13.832;2023-02-28T09:14:52;-1.20;99.90
12470;DHT22;36499;46.484;13.832;2023-02-28T09:17:20;-1.20;99.90
12470;DHT22;36499;46.484;13.832;2023-02-28T09:19:49;-1.20;99.90
12470;DHT22;36499;46.484;13.832;2023-02-28T09:22:16;-1.00;99.90
12470;DHT22;36499;46.484;13.832;2023-02-28T09:24:43;-1.20;99.90
12470;DHT22;36499;46.484;13.832;2023-02-28T09:27:11;-1.20;99.90
12470;DHT22;36499;46.484;13.832;2023-02-28T09:29:38;-1.20;99.90
12470;DHT22;36499;46.484;13.832;2023-02-28T09:32:05;-1.20;99.90
12470;DHT22;36499;46.484;13.832;2023-02-28T09:34:32;-1.10;99.90
12470;DHT22;36499;46.484;13.832;2023-02-28T09:37:01;-1.10;99.90
12470;DHT22;36499;46.484;13.832;2023-02-28T09:39:28;-1.10;99.90
12470;DHT22;36499;46.484;13.832;2023-02-28T09:41:55;-1.20;99.90
12470;DHT22;36499;46.484;13.832;2023-02-28T09:44:29;-1.10;99.90
12470;DHT22;36499;46.484;13.832;2023-02-28T09:47:07;-1.10;99.90
12470;DHT22;36499;46.484;13.832;2023-02-28T09:49:42;-1.10;99.90
12470;DHT22;36499;46.484;13.832;2023-02-28T09:52:17;-1.00;99.90
12470;DHT22;36499;46.484;13.832;2023-02-28T09:54:47;-1.00;99.90
12470;DHT22;36499;46.484;13.832;2023-02-28T09:57:19;-0.90;99.90
12470;DHT22;36499;46.484;13.832;2023-02-28T10:00:05;-1.00;99.90
12470;DHT22;36499;46.484;13.832;2023-02-28T10:02:58;-0.90;99.90
12470;DHT22;36499;46.484;13.832;2023-02-28T10:05:36;-0.90;99.90
12470;DHT22;36499;46.484;13.832;2023-02-28T10:08:11;-0.90;99.90
12470;DHT22;36499;46.484;13.832;2023-02-28T10:10:43;-0.90;99.90
12470;DHT22;36499;46.484;13.832;2023-02-28T10:13:17;-0.80;99.90
12470;DHT22;36499;46.484;13.832;2023-02-28T10:15:52;-0.80;99.90
12470;DHT22;36499;46.484;13.832;2023-02-28T10:18:27;-0.80;99.90
12470;DHT22;36499;46.484;13.832;2023-02-28T10:20:57;-0.80;99.90
12470;DHT22;36499;46.484;13.832;2023-02-28T10:23:31;-0.70;99.90
12470;DHT22;36499;46.484;13.832;2023-02-28T10:26:08;-0.70;99.90
12470;DHT22;36499;46.484;13.832;2023-02-28T10:28:38;-0.60;99.90
12470;DHT22;36499;46.484;13.832;2023-02-28T10:31:08;-0.60;99.90
12470;DHT22;36499;46.484;13.832;2023-02-28T10:33:42;-0.50;99.90
12470;DHT22;36499;46.484;13.832;2023-02-28T10:36:14;-0.50;99.90
12470;DHT22;36499;46.484;13.832;2023-02-28T10:38:46;-0.60;99.90
12470;DHT22;36499;46.484;13.832;2023-02-28T10:41:15;-0.50;99.90
12470;DHT22;36499;46.484;13.832;2023-02-28T10:43:44;-0.60;99.90
12470;DHT22;36499;46.484;13.832;2023-02-28T10:46:14;-0.60;99.90
12470;DHT22;36499;46.484;13.832;2023-02-28T10:49:00;-0.50;99.90
12470;DHT22;36499;46.484;13.832;2023-02-28T10:51:36;-0.50;99.90
12470;DHT22;36499;46.484;13.832;2023-02-28T10:54:15;-0.50;99.90
12470;DHT22;36499;46.484;13.832;2023-02-28T10:56:43;-0.40;99.90
12470;DHT22;36499;46.484;13.832;2023-02-28T10:59:28;-0.40;99.90
12470;DHT22;36499;46.484;13.832;2023-02-28T11:01:57;-0.50;99.90
12470;DHT22;36499;46.484;13.832;2023-02-28T11:04:34;-0.40;99.90
12470;DHT22;36499;46.484;13.832;2023-02-28T11:07:10;-0.40;99.90
12470;DHT22;36499;46.484;13.832;2023-02-28T11:09:48;-0.40;99.90
12470;DHT22;36499;46.484;13.832;2023-02-28T11:12:25;-0.40;99.90
12470;DHT22;36499;46.484;13.832;2023-02-28T11:14:57;-0.40;99.90
12470;DHT22;36499;46.484;13.832;2023-02-28T11:17:28;-0.30;99.90
12470;DHT22;36499;46.484;13.832;2023-02-28T11:19:58;-0.40;99.90
12470;DHT22;36499;46.484;13.832;2023-02-28T11:22:32;-0.30;99.90
12470;DHT22;36499;46.484;13.832;2023-02-28T11:25:09;-0.20;99.90
12470;DHT22;36499;46.484;13.832;2023-02-28T11:27:46;-0.20;99.90
12470;DHT22;36499;46.484;13.832;2023-02-28T11:30:26;-0.20;99.90
12470;DHT22;36499;46.484;13.832;2023-02-28T11:32:56;-0.20;99.90
12470;DHT22;36499;46.484;13.832;2023-02-28T11:35:27;-0.20;99.90
12470;DHT22;36499;46.484;13.832;2023-02-28T11:37:57;-0.20;99.90
12470;DHT22;36499;46.484;13.832;2023-02-28T11:40:31;-0.10;99.90
12470;DHT22;36499;46.484;13.832;2023-02-28T11:43:16;-0.10;99.90
12470;DHT22;36499;46.484;13.832;2023-02-28T11:46:05;0.00;99.90
12470;DHT22;36499;46.484;13.832;2023-02-28T11:48:45;-0.10;99.90
12470;DHT22;36499;46.484;13.832;2023-02-28T11:51:27;0.00;99.90
12470;DHT22;36499;46.484;13.832;2023-02-28T11:54:11;0.00;99.90
12470;DHT22;36499;46.484;13.832;2023-02-28T11:56:55;0.00;99.90
12470;DHT22;36499;46.484;13.832;2023-02-28T11:59:38;-0.10;99.90
12470;DHT22;36499;46.484;13.832;2023-02-28T12:02:24;-0.10;99.90
12470;DHT22;36499;46.484;13.832;2023-02-28T12:05:12;0.00;99.90
12470;DHT22;36499;46.484;13.832;2023-02-28T12:07:57;0.00;99.90
12470;DHT22;36499;46.484;13.832;2023-02-28T12:10:35;0.00;99.90
12470;DHT22;36499;46.484;13.832;2023-02-28T12:13:18;0.10;99.90
12470;DHT22;36499;46.484;13.832;2023-02-28T12:19:19;0.10;99.90
12470;DHT22;36499;46.484;13.832;2023-02-28T12:22:12;0.00;99.90
12470;DHT22;36499;46.484;13.832;2023-02-28T12:28:15;0.20;99.90
12470;DHT22;36499;46.484;13.832;2023-02-28T12:30:56;0.30;99.90
12470;DHT22;36499;46.484;13.832;2023-02-28T12:33:33;0.30;99.90
12470;DHT22;36499;46.484;13.832;2023-02-28T12:36:07;0.40;99.90
12470;DHT22;36499;46.484;13.832;2023-02-28T12:38:40;0.40;99.90
12470;DHT22;36499;46.484;13.832;2023-02-28T12:41:13;0.50;99.90
12470;DHT22;36499;46.484;13.832;2023-02-28T12:43:48;0.50;99.90
12470;DHT22;36499;46.484;13.832;2023-02-28T12:46:25;0.50;99.90
12470;DHT22;36499;46.484;13.832;2023-02-28T12:49:00;0.40;99.90
12470;DHT22;36499;46.484;13.832;2023-02-28T12:51:32;0.40;99.90
12470;DHT22;36499;46.484;13.832;2023-02-28T12:54:12;0.40;99.90
12470;DHT22;36499;46.484;13.832;2023-02-28T12:56:49;0.50;99.90
12470;DHT22;36499;46.484;13.832;2023-02-28T12:59:29;0.60;99.90
12470;DHT22;36499;46.484;13.832;2023-02-28T13:02:20;0.50;99.90
12470;DHT22;36499;46.484;13.832;2023-02-28T13:08:56;0.40;99.90
12470;DHT22;36499;46.484;13.832;2023-02-28T13:11:30;0.40;99.90
12470;DHT22;36499;46.484;13.832;2023-02-28T13:14:02;0.40;99.90
12470;DHT22;36499;46.484;13.832;2023-02-28T13:16:54;0.50;99.90
12470;DHT22;36499;46.484;13.832;2023-02-28T13:19:32;0.50;99.90
12470;DHT22;36499;46.484;13.832;2023-02-28T13:22:01;0.50;99.90
12470;DHT22;36499;46.484;13.832;2023-02-28T13:24:45;0.50;99.90
12470;DHT22;36499;46.484;13.832;2023-02-28T13:27:32;0.40;99.90
12470;DHT22;36499;46.484;13.832;2023-02-28T13:33:34;0.40;99.90
12470;DHT22;36499;46.484;13.832;2023-02-28T13:36:09;0.50;99.90
12470;DHT22;36499;46.484;13.832;2023-02-28T13:38:55;0.50;99.90
12470;DHT22;36499;46.484;13.832;2023-02-28T13:41:46;0.60;99.90
12470;DHT22;36499;46.484;13.832;2023-02-28T13:44:16;0.70;99.90
12470;DHT22;36499;46.484;13.832;2023-02-28T13:47:20;0.70;99.90
12470;DHT22;36499;46.484;13.832;2023-02-28T13:50:14;0.70;99.90
12470;DHT22;36499;46.484;13.832;2023-02-28T13:52:55;0.70;99.90
12470;DHT22;36499;46.484;13.832;2023-02-28T13:55:45;0.70;99.90
12470;DHT22;36499;46.484;13.832;2023-02-28T13:58:27;0.60;99.90
12470;DHT22;36499;46.484;13.832;2023-02-28T14:01:22;0.60;99.90
12470;DHT22;36499;46.484;13.832;2023-02-28T14:04:13;0.60;99.90
12470;DHT22;36499;46.484;13.832;2023-02-28T14:06:57;0.60;99.90
12470;DHT22;36499;46.484;13.832;2023-02-28T14:09:30;0.50;99.90
12470;DHT22;36499;46.484;13.832;2023-02-28T14:15:33;0.50;99.90
12470;DHT22;36499;46.484;13.832;2023-02-28T14:18:20;0.60;99.90
12470;DHT22;36499;46.484;13.832;2023-02-28T14:20:51;0.60;99.90
12470;DHT22;36499;46.484;13.832;2023-02-28T14:27:16;0.60;99.90
12470;DHT22;36499;46.484;13.832;2023-02-28T14:30:18;0.70;99.90
12470;DHT22;36499;46.484;13.832;2023-02-28T14:33:14;0.70;99.90
12470;DHT22;36499;46.484;13.832;2023-02-28T14:36:08;0.80;99.90
12470;DHT22;36499;46.484;13.832;2023-02-28T14:38:45;0.80;99.90
12470;DHT22;36499;46.484;13.832;2023-02-28T14:41:20;0.80;99.90
12470;DHT22;36499;46.484;13.832;2023-02-28T14:43:57;0.80;99.90
12470;DHT22;36499;46.484;13.832;2023-02-28T14:46:30;0.80;99.90
12470;DHT22;36499;46.484;13.832;2023-02-28T14:49:04;0.80;99.90
12470;DHT22;36499;46.484;13.832;2023-02-28T14:51:35;0.80;99.90
12470;DHT22;36499;46.484;13.832;2023-02-28T14:54:04;0.80;99.90
12470;DHT22;36499;46.484;13.832;2023-02-28T14:56:34;0.80;99.90
12470;DHT22;36499;46.484;13.832;2023-02-28T14:59:05;0.80;99.90
12470;DHT22;36499;46.484;13.832;2023-02-28T15:01:47;0.80;99.90
12470;DHT22;36499;46.484;13.832;2023-02-28T15:04:22;0.80;99.90
12470;DHT22;36499;46.484;13.832;2023-02-28T15:07:07;0.80;99.90
12470;DHT22;36499;46.484;13.832;2023-02-28T15:09:36;0.80;99.90
12470;DHT22;36499;46.484;13.832;2023-02-28T15:12:04;0.80;99.90
12470;DHT22;36499;46.484;13.832;2023-02-28T15:14:32;0.80;99.90
12470;DHT22;36499;46.484;13.832;2023-02-28T15:17:11;0.80;99.90
12470;DHT22;36499;46.484;13.832;2023-02-28T15:19:51;0.80;99.90
12470;DHT22;36499;46.484;13.832;2023-02-28T15:22:23;0.80;99.90
12470;DHT22;36499;46.484;13.832;2023-02-28T15:24:56;0.80;99.90
12470;DHT22;36499;46.484;13.832;2023-02-28T15:27:27;0.80;99.90
12470;DHT22;36499;46.484;13.832;2023-02-28T15:29:59;0.70;99.90
12470;DHT22;36499;46.484;13.832;2023-02-28T15:32:32;0.70;99.90
12470;DHT22;36499;46.484;13.832;2023-02-28T15:35:18;0.70;99.90
12470;DHT22;36499;46.484;13.832;2023-02-28T15:37:50;0.60;99.90
12470;DHT22;36499;46.484;13.832;2023-02-28T15:40:26;0.60;99.90
12470;DHT22;36499;46.484;13.832;2023-02-28T15:43:02;0.60;99.90
12470;DHT22;36499;46.484;13.832;2023-02-28T15:45:34;0.60;99.90
12470;DHT22;36499;46.484;13.832;2023-02-28T15:48:17;0.50;99.90
12470;DHT22;36499;46.484;13.832;2023-02-28T15:50:51;0.60;99.90
12470;DHT22;36499;46.484;13.832;2023-02-28T15:53:22;0.60;99.90
12470;DHT22;36499;46.484;13.832;2023-02-28T15:55:56;0.50;99.90
12470;DHT22;36499;46.484;13.832;2023-02-28T15:58:27;0.50;99.90
12470;DHT22;36499;46.484;13.832;2023-02-28T16:01:07;0.60;99.90
12470;DHT22;36499;46.484;13.832;2023-02-28T16:03:46;0.50;99.90
12470;DHT22;36499;46.484;13.832;2023-02-28T16:06:42;0.60;99.90
12470;DHT22;36499;46.484;13.832;2023-02-28T16:09:12;0.50;99.90
12470;DHT22;36499;46.484;13.832;2023-02-28T16:11:45;0.50;99.90
12470;DHT22;36499;46.484;13.832;2023-02-28T16:14:16;0.50;99.90
12470;DHT22;36499;46.484;13.832;2023-02-28T16:16:46;0.50;99.90
12470;DHT22;36499;46.484;13.832;2023-02-28T16:19:15;0.40;99.90
12470;DHT22;36499;46.484;13.832;2023-02-28T16:21:42;0.40;99.90